sensor_id;sensor_type;location;lat;lon;timestamp;temperature;humidity
45643;DHT22;31358;46.008;11.144;2023-11-21T00:01:18;6.20;99.90
45643;DHT22;31358;46.008;11.144;2023-11-21T00:03:43;6.10;99.90
45643;DHT22;31358;46.008;11.144;2023-11-21T00:06:09;6.00;99.90
45643;DHT22;31358;46.008;11.144;2023-11-21T00:08:36;6.00;99.90
45643;DHT22;31358;46.008;11.144;2023-11-21T00:11:01;6.00;99.90
45643;DHT22;31358;46.008;11.144;2023-11-21T00:13:31;6.00;99.90
45643;DHT22;31358;46.008;11.144;2023-11-21T00:15:57;6.00;99.90
45643;DHT22;31358;46.008;11.144;2023-11-21T00:18:23;6.10;99.90
45643;DHT22;31358;46.008;11.144;2023-11-21T00:20:48;6.00;99.90
45643;DHT22;31358;46.008;11.144;2023-11-21T00:23:14;5.90;99.90
45643;DHT22;31358;46.008;11.144;2023-11-21T00:25:40;6.00;99.90
45643;DHT22;31358;46.008;11.144;2023-11-21T00:28:07;6.10;99.90
45643;DHT22;31358;46.008;11.144;2023-11-21T00:30:32;6.20;99.90
45643;DHT22;31358;46.008;11.144;2023-11-21T00:32:58;6.20;99.90
45643;DHT22;31358;46.008;11.144;2023-11-21T00:35:24;6.10;99.90
45643;DHT22;31358;46.008;11.144;2023-11-21T00:37:50;5.90;99.90
45643;DHT22;31358;46.008;11.144;2023-11-21T00:40:15;6.00;99.90
45643;DHT22;31358;46.008;11.144;2023-11-21T00:42:44;6.20;99.90
45643;DHT22;31358;46.008;11.144;2023-11-21T00:45:10;6.30;99.90
45643;DHT22;31358;46.008;11.144;2023-11-21T00:47:36;6.30;99.90
45643;DHT22;31358;46.008;11.144;2023-11-21T00:50:04;6.30;99.90
45643;DHT22;31358;46.008;11.144;2023-11-21T00:52:31;6.30;99.90
45643;DHT22;31358;46.008;11.144;2023-11-21T00:54:57;6.20;99.90
45643;DHT22;31358;46.008;11.144;2023-11-21T00:57:25;6.00;99.90
45643;DHT22;31358;46.008;11.144;2023-11-21T00:59:51;6.00;99.90
45643;DHT22;31358;46.008;11.144;2023-11-21T01:02:17;6.00;99.90
45643;DHT22;31358;46.008;11.144;2023-11-21T01:04:43;5.90;99.90
45643;DHT22;31358;46.008;11.144;2023-11-21T01:07:09;5.90;99.90
45643;DHT22;31358;46.008;11.144;2023-11-21T01:09:35;5.70;99.90
45643;DHT22;31358;46.008;11.144;2023-11-21T01:12:00;5.60;99.90
45643;DHT22;31358;46.008;11.144;2023-11-21T01:14:26;5.60;99.90
45643;DHT22;31358;46.008;11.144;2023-11-21T01:16:53;5.60;99.90
45643;DHT22;31358;46.008;11.144;2023-11-21T01:19:18;5.70;99.90
45643;DHT22;31358;46.008;11.144;2023-11-21T01:21:44;5.70;99.90
45643;DHT22;31358;46.008;11.144;2023-11-21T01:24:10;5.60;99.90
45643;DHT22;31358;46.008;11.144;2023-11-21T01:26:35;5.50;99.90
45643;DHT22;31358;46.008;11.144;2023-11-21T01:29:01;5.50;99.90
45643;DHT22;31358;46.008;11.144;2023-11-21T01:31:27;5.40;99.90
45643;DHT22;31358;46.008;11.144;2023-11-21T01:33:55;5.40;99.90
45643;DHT22;31358;46.008;11.144;2023-11-21T01:36:21;5.30;99.90
45643;DHT22;31358;46.008;11.144;2023-11-21T01:38:47;5.40;99.90
45643;DHT22;31358;46.008;11.144;2023-11-21T01:41:14;5.40;99.90
45643;DHT22;31358;46.008;11.144;2023-11-21T01:43:41;5.40;99.90
45643;DHT22;31358;46.008;11.144;2023-11-21T01:46:08;5.60;99.90
45643;DHT22;31358;46.008;11.144;2023-11-21T01:48:34;5.60;99.90
45643;DHT22;31358;46.008;11.144;2023-11-21T01:51:01;5.70;99.90
45643;DHT22;31358;46.008;11.144;2023-11-21T01:53:27;5.80;99.90
45643;DHT22;31358;46.008;11.144;2023-11-21T01:55:55;5.80;99.90
45643;DHT22;31358;46.008;11.144;2023-11-21T01:58:21;5.80;99.90
45643;DHT22;31358;46.008;11.144;2023-11-21T02:00:47;5.60;99.90
45643;DHT22;31358;46.008;11.144;2023-11-21T02:03:16;5.50;99.90
45643;DHT22;31358;46.008;11.144;2023-11-21T02:05:42;5.40;99.90
45643;DHT22;31358;46.008;11.144;2023-11-21T02:08:08;5.40;99.90
45643;DHT22;31358;46.008;11.144;2023-11-21T02:10:35;5.40;99.90
45643;DHT22;31358;46.008;11.144;2023-11-21T02:13:02;5.30;99.90
45643;DHT22;31358;46.008;11.144;2023-11-21T02:15:28;5.30;99.90
45643;DHT22;31358;46.008;11.144;2023-11-21T02:17:54;5.40;99.90
45643;DHT22;31358;46.008;11.144;2023-11-21T02:20:22;5.50;99.90
45643;DHT22;31358;46.008;11.144;2023-11-21T02:22:52;5.40;99.90
45643;DHT22;31358;46.008;11.144;2023-11-21T02:25:32;5.50;99.90
45643;DHT22;31358;46.008;11.144;2023-11-21T02:28:02;5.50;99.90
45643;DHT22;31358;46.008;11.144;2023-11-21T02:30:28;5.50;99.90
45643;DHT22;31358;46.008;11.144;2023-11-21T02:32:54;5.40;99.90
45643;DHT22;31358;46.008;11.144;2023-11-21T02:35:22;5.40;99.90
45643;DHT22;31358;46.008;11.144;2023-11-21T02:37:48;5.30;99.90
45643;DHT22;31358;46.008;11.144;2023-11-21T02:40:14;5.20;99.90
45643;DHT22;31358;46.008;11.144;2023-11-21T02:42:44;5.30;99.90
45643;DHT22;31358;46.008;11.144;2023-11-21T02:45:09;5.30;99.90
45643;DHT22;31358;46.008;11.144;2023-11-21T02:47:41;5.20;99.90
45643;DHT22;31358;46.008;11.144;2023-11-21T02:50:07;5.10;99.90
45643;DHT22;31358;46.008;11.144;2023-11-21T02:52:36;5.00;99.90
45643;DHT22;31358;46.008;11.144;2023-11-21T02:55:02;4.70;99.90
45643;DHT22;31358;46.008;11.144;2023-11-21T02:57:28;4.80;99.90
45643;DHT22;31358;46.008;11.144;2023-11-21T02:59:54;4.60;99.90
45643;DHT22;31358;46.008;11.144;2023-11-21T03:02:20;4.50;99.90
45643;DHT22;31358;46.008;11.144;2023-11-21T03:04:45;4.60;99.90
45643;DHT22;31358;46.008;11.144;2023-11-21T03:07:13;4.60;99.90
45643;DHT22;31358;46.008;11.144;2023-11-21T03:09:39;4.90;99.90
45643;DHT22;31358;46.008;11.144;2023-11-21T03:12:05;4.80;99.90
45643;DHT22;31358;46.008;11.144;2023-11-21T03:14:31;4.70;99.90
45643;DHT22;31358;46.008;11.144;2023-11-21T03:16:57;4.80;99.90
45643;DHT22;31358;46.008;11.144;2023-11-21T03:19:22;4.80;99.90
45643;DHT22;31358;46.008;11.144;2023-11-21T03:21:49;4.80;99.90
45643;DHT22;31358;46.008;11.144;2023-11-21T03:24:14;4.70;99.90
45643;DHT22;31358;46.008;11.144;2023-11-21T03:26:44;4.80;99.90
45643;DHT22;31358;46.008;11.144;2023-11-21T03:29:10;4.70;99.90
45643;DHT22;31358;46.008;11.144;2023-11-21T03:31:36;4.60;99.90
45643;DHT22;31358;46.008;11.144;2023-11-21T03:34:01;4.60;99.90
45643;DHT22;31358;46.008;11.144;2023-11-21T03:36:27;4.70;99.90
45643;DHT22;31358;46.008;11.144;2023-11-21T03:38:53;4.80;99.90
45643;DHT22;31358;46.008;11.144;2023-11-21T03:41:19;4.80;99.90
45643;DHT22;31358;46.008;11.144;2023-11-21T03:43:44;4.80;99.90
45643;DHT22;31358;46.008;11.144;2023-11-21T03:46:10;4.60;99.90
45643;DHT22;31358;46.008;11.144;2023-11-21T03:48:36;4.60;99.90
45643;DHT22;31358;46.008;11.144;2023-11-21T03:51:01;4.60;99.90
45643;DHT22;31358;46.008;11.144;2023-11-21T03:53:27;4.70;99.90
45643;DHT22;31358;46.008;11.144;2023-11-21T03:55:52;4.70;99.90
45643;DHT22;31358;46.008;11.144;2023-11-21T03:58:18;4.70;99.90
45643;DHT22;31358;46.008;11.144;2023-11-21T04:00:44;4.70;99.90
45643;DHT22;31358;46.008;11.144;2023-11-21T04:03:09;4.80;99.90
45643;DHT22;31358;46.008;11.144;2023-11-21T04:05:35;4.80;99.90
45643;DHT22;31358;46.008;11.144;2023-11-21T04:08:01;4.80;99.90
45643;DHT22;31358;46.008;11.144;2023-11-21T04:10:26;4.90;99.90
45643;DHT22;31358;46.008;11.144;2023-11-21T04:12:52;4.70;99.90
45643;DHT22;31358;46.008;11.144;2023-11-21T04:15:18;4.80;99.90
45643;DHT22;31358;46.008;11.144;2023-11-21T04:17:43;4.70;99.90
45643;DHT22;31358;46.008;11.144;2023-11-21T04:20:11;4.70;99.90
45643;DHT22;31358;46.008;11.144;2023-11-21T04:22:38;4.60;99.90
45643;DHT22;31358;46.008;11.144;2023-11-21T04:25:08;4.60;99.90
45643;DHT22;31358;46.008;11.144;2023-11-21T04:27:36;4.80;99.90
45643;DHT22;31358;46.008;11.144;2023-11-21T04:30:02;5.00;99.90
45643;DHT22;31358;46.008;11.144;2023-11-21T04:32:28;5.30;99.90
45643;DHT22;31358;46.008;11.144;2023-11-21T04:34:53;5.30;99.90
45643;DHT22;31358;46.008;11.144;2023-11-21T04:37:19;5.30;99.90
45643;DHT22;31358;46.008;11.144;2023-11-21T04:39:45;5.30;99.90
45643;DHT22;31358;46.008;11.144;2023-11-21T04:42:10;5.40;99.90
45643;DHT22;31358;46.008;11.144;2023-11-21T04:44:36;5.50;99.90
45643;DHT22;31358;46.008;11.144;2023-11-21T04:47:02;5.20;99.90
45643;DHT22;31358;46.008;11.144;2023-11-21T04:49:30;4.90;99.90
45643;DHT22;31358;46.008;11.144;2023-11-21T04:51:55;4.80;99.90
45643;DHT22;31358;46.008;11.144;2023-11-21T04:54:21;4.70;99.90
45643;DHT22;31358;46.008;11.144;2023-11-21T04:56:47;4.50;99.90
45643;DHT22;31358;46.008;11.144;2023-11-21T04:59:12;4.40;99.90
45643;DHT22;31358;46.008;11.144;2023-11-21T05:01:38;4.30;99.90
45643;DHT22;31358;46.008;11.144;2023-11-21T05:04:04;4.30;99.90
45643;DHT22;31358;46.008;11.144;2023-11-21T05:06:31;4.20;99.90
45643;DHT22;31358;46.008;11.144;2023-11-21T05:08:58;4.20;99.90
45643;DHT22;31358;46.008;11.144;2023-11-21T05:11:28;4.40;99.90
45643;DHT22;31358;46.008;11.144;2023-11-21T05:13:57;4.30;99.90
45643;DHT22;31358;46.008;11.144;2023-11-21T05:16:26;4.30;99.90
45643;DHT22;31358;46.008;11.144;2023-11-21T05:18:53;4.40;99.90
45643;DHT22;31358;46.008;11.144;2023-11-21T05:21:18;4.50;99.90
45643;DHT22;31358;46.008;11.144;2023-11-21T05:23:46;4.50;99.90
45643;DHT22;31358;46.008;11.144;2023-11-21T05:26:12;4.50;99.90
45643;DHT22;31358;46.008;11.144;2023-11-21T05:28:37;4.50;99.90
45643;DHT22;31358;46.008;11.144;2023-11-21T05:31:03;4.60;99.90
45643;DHT22;31358;46.008;11.144;2023-11-21T05:33:29;4.70;99.90
45643;DHT22;31358;46.008;11.144;2023-11-21T05:35:54;4.60;99.90
45643;DHT22;31358;46.008;11.144;2023-11-21T05:38:20;4.60;99.90
45643;DHT22;31358;46.008;11.144;2023-11-21T05:40:47;4.40;99.90
45643;DHT22;31358;46.008;11.144;2023-11-21T05:43:13;4.30;99.90
45643;DHT22;31358;46.008;11.144;2023-11-21T05:45:38;4.40;99.90
45643;DHT22;31358;46.008;11.144;2023-11-21T05:48:04;4.20;99.90
45643;DHT22;31358;46.008;11.144;2023-11-21T05:50:31;4.30;99.90
45643;DHT22;31358;46.008;11.144;2023-11-21T05:52:58;4.20;99.90
45643;DHT22;31358;46.008;11.144;2023-11-21T05:55:25;4.30;99.90
45643;DHT22;31358;46.008;11.144;2023-11-21T05:57:51;4.40;99.90
45643;DHT22;31358;46.008;11.144;2023-11-21T06:00:17;4.40;99.90
45643;DHT22;31358;46.008;11.144;2023-11-21T06:02:48;4.50;99.90
45643;DHT22;31358;46.008;11.144;2023-11-21T06:05:17;4.30;99.90
45643;DHT22;31358;46.008;11.144;2023-11-21T06:07:43;4.20;99.90
45643;DHT22;31358;46.008;11.144;2023-11-21T06:10:11;4.10;99.90
45643;DHT22;31358;46.008;11.144;2023-11-21T06:12:38;4.10;99.90
45643;DHT22;31358;46.008;11.144;2023-11-21T06:15:05;4.00;99.90
45643;DHT22;31358;46.008;11.144;2023-11-21T06:17:37;4.20;99.90
45643;DHT22;31358;46.008;11.144;2023-11-21T06:20:03;4.30;99.90
45643;DHT22;31358;46.008;11.144;2023-11-21T06:22:38;4.60;99.90
45643;DHT22;31358;46.008;11.144;2023-11-21T06:25:05;4.70;99.90
45643;DHT22;31358;46.008;11.144;2023-11-21T06:27:37;4.90;99.90
45643;DHT22;31358;46.008;11.144;2023-11-21T06:30:03;5.00;99.90
45643;DHT22;31358;46.008;11.144;2023-11-21T06:32:29;5.20;99.90
45643;DHT22;31358;46.008;11.144;2023-11-21T06:34:56;5.20;99.90
45643;DHT22;31358;46.008;11.144;2023-11-21T06:37:28;4.80;99.90
45643;DHT22;31358;46.008;11.144;2023-11-21T06:39:54;4.50;99.90
45643;DHT22;31358;46.008;11.144;2023-11-21T06:42:20;4.40;99.90
45643;DHT22;31358;46.008;11.144;2023-11-21T06:44:46;4.60;99.90
45643;DHT22;31358;46.008;11.144;2023-11-21T06:47:13;4.60;99.90
45643;DHT22;31358;46.008;11.144;2023-11-21T06:49:39;4.60;99.90
45643;DHT22;31358;46.008;11.144;2023-11-21T06:52:05;4.80;99.90
45643;DHT22;31358;46.008;11.144;2023-11-21T06:54:31;4.90;99.90
45643;DHT22;31358;46.008;11.144;2023-11-21T06:56:58;4.90;99.90
45643;DHT22;31358;46.008;11.144;2023-11-21T06:59:24;5.00;99.90
45643;DHT22;31358;46.008;11.144;2023-11-21T07:01:50;5.20;99.90
45643;DHT22;31358;46.008;11.144;2023-11-21T07:04:16;5.30;99.90
45643;DHT22;31358;46.008;11.144;2023-11-21T07:06:41;5.40;99.90
45643;DHT22;31358;46.008;11.144;2023-11-21T07:09:09;5.50;99.90
45643;DHT22;31358;46.008;11.144;2023-11-21T07:11:35;5.50;99.90
45643;DHT22;31358;46.008;11.144;2023-11-21T07:14:01;5.50;99.90
45643;DHT22;31358;46.008;11.144;2023-11-21T07:16:36;5.40;99.90
45643;DHT22;31358;46.008;11.144;2023-11-21T07:19:05;5.10;99.90
45643;DHT22;31358;46.008;11.144;2023-11-21T07:21:34;5.00;99.90
45643;DHT22;31358;46.008;11.144;2023-11-21T07:24:05;5.00;99.90
45643;DHT22;31358;46.008;11.144;2023-11-21T07:26:32;5.10;99.90
45643;DHT22;31358;46.008;11.144;2023-11-21T07:28:59;5.20;99.90
45643;DHT22;31358;46.008;11.144;2023-11-21T07:31:24;5.30;99.90
45643;DHT22;31358;46.008;11.144;2023-11-21T07:33:51;5.10;99.90
45643;DHT22;31358;46.008;11.144;2023-11-21T07:36:17;4.70;99.90
45643;DHT22;31358;46.008;11.144;2023-11-21T07:38:49;4.70;99.90
45643;DHT22;31358;46.008;11.144;2023-11-21T07:41:15;4.80;99.90
45643;DHT22;31358;46.008;11.144;2023-11-21T07:43:41;4.90;99.90
45643;DHT22;31358;46.008;11.144;2023-11-21T07:46:07;4.80;99.90
45643;DHT22;31358;46.008;11.144;2023-11-21T07:48:34;4.90;99.90
45643;DHT22;31358;46.008;11.144;2023-11-21T07:51:01;5.20;99.90
45643;DHT22;31358;46.008;11.144;2023-11-21T07:53:27;5.30;99.90
45643;DHT22;31358;46.008;11.144;2023-11-21T07:55:55;5.70;99.90
45643;DHT22;31358;46.008;11.144;2023-11-21T07:58:21;5.90;99.90
45643;DHT22;31358;46.008;11.144;2023-11-21T08:00:47;6.20;99.90
45643;DHT22;31358;46.008;11.144;2023-11-21T08:03:13;6.20;99.90
45643;DHT22;31358;46.008;11.144;2023-11-21T08:05:39;6.10;99.90
45643;DHT22;31358;46.008;11.144;2023-11-21T08:08:05;6.10;99.90
45643;DHT22;31358;46.008;11.144;2023-11-21T08:10:31;6.30;99.90
45643;DHT22;31358;46.008;11.144;2023-11-21T08:12:57;6.30;99.90
45643;DHT22;31358;46.008;11.144;2023-11-21T08:15:23;6.50;99.90
45643;DHT22;31358;46.008;11.144;2023-11-21T08:17:49;6.40;99.90
45643;DHT22;31358;46.008;11.144;2023-11-21T08:20:15;6.40;99.90
45643;DHT22;31358;46.008;11.144;2023-11-21T08:22:44;6.30;99.90
45643;DHT22;31358;46.008;11.144;2023-11-21T08:25:10;6.50;99.90
45643;DHT22;31358;46.008;11.144;2023-11-21T08:27:36;6.30;99.90
45643;DHT22;31358;46.008;11.144;2023-11-21T08:30:04;6.40;99.90
45643;DHT22;31358;46.008;11.144;2023-11-21T08:32:30;6.50;99.90
45643;DHT22;31358;46.008;11.144;2023-11-21T08:34:58;6.50;99.90
45643;DHT22;31358;46.008;11.144;2023-11-21T08:37:24;6.70;99.90
45643;DHT22;31358;46.008;11.144;2023-11-21T08:39:53;6.60;99.90
45643;DHT22;31358;46.008;11.144;2023-11-21T08:42:19;6.50;99.90
45643;DHT22;31358;46.008;11.144;2023-11-21T08:44:45;6.50;99.90
45643;DHT22;31358;46.008;11.144;2023-11-21T08:47:11;6.50;99.90
45643;DHT22;31358;46.008;11.144;2023-11-21T08:49:37;6.30;99.90
45643;DHT22;31358;46.008;11.144;2023-11-21T08:52:03;6.20;99.90
45643;DHT22;31358;46.008;11.144;2023-11-21T08:54:30;6.40;99.90
45643;DHT22;31358;46.008;11.144;2023-11-21T08:56:56;6.50;99.90
45643;DHT22;31358;46.008;11.144;2023-11-21T08:59:24;6.70;99.90
45643;DHT22;31358;46.008;11.144;2023-11-21T09:01:50;6.80;99.90
45643;DHT22;31358;46.008;11.144;2023-11-21T09:04:15;6.90;99.90
45643;DHT22;31358;46.008;11.144;2023-11-21T09:06:41;6.80;99.90
45643;DHT22;31358;46.008;11.144;2023-11-21T09:09:06;6.80;99.90
45643;DHT22;31358;46.008;11.144;2023-11-21T09:11:33;6.90;99.90
45643;DHT22;31358;46.008;11.144;2023-11-21T09:14:00;7.00;99.90
45643;DHT22;31358;46.008;11.144;2023-11-21T09:16:26;6.80;99.90
45643;DHT22;31358;46.008;11.144;2023-11-21T09:18:52;6.90;99.90
45643;DHT22;31358;46.008;11.144;2023-11-21T09:21:17;7.10;99.90
45643;DHT22;31358;46.008;11.144;2023-11-21T09:23:47;7.10;99.90
45643;DHT22;31358;46.008;11.144;2023-11-21T09:26:13;7.10;99.90
45643;DHT22;31358;46.008;11.144;2023-11-21T09:28:42;7.10;99.90
45643;DHT22;31358;46.008;11.144;2023-11-21T09:31:11;7.10;99.90
45643;DHT22;31358;46.008;11.144;2023-11-21T09:33:37;7.20;99.90
45643;DHT22;31358;46.008;11.144;2023-11-21T09:36:04;7.30;99.90
45643;DHT22;31358;46.008;11.144;2023-11-21T09:38:30;7.30;99.90
45643;DHT22;31358;46.008;11.144;2023-11-21T09:40:56;7.30;99.90
45643;DHT22;31358;46.008;11.144;2023-11-21T09:43:25;7.20;99.90
45643;DHT22;31358;46.008;11.144;2023-11-21T09:46:06;7.50;99.90
45643;DHT22;31358;46.008;11.144;2023-11-21T09:48:37;7.40;99.90
45643;DHT22;31358;46.008;11.144;2023-11-21T09:51:04;7.40;99.90
45643;DHT22;31358;46.008;11.144;2023-11-21T09:53:32;7.40;99.90
45643;DHT22;31358;46.008;11.144;2023-11-21T09:55:59;7.60;99.90
45643;DHT22;31358;46.008;11.144;2023-11-21T09:58:27;7.30;99.90
45643;DHT22;31358;46.008;11.144;2023-11-21T10:00:54;7.50;99.90
45643;DHT22;31358;46.008;11.144;2023-11-21T10:03:22;7.60;99.90
45643;DHT22;31358;46.008;11.144;2023-11-21T10:05:48;7.70;99.90
45643;DHT22;31358;46.008;11.144;2023-11-21T10:08:15;7.70;99.90
45643;DHT22;31358;46.008;11.144;2023-11-21T10:10:45;7.80;99.90
45643;DHT22;31358;46.008;11.144;2023-11-21T10:13:13;7.80;99.90
45643;DHT22;31358;46.008;11.144;2023-11-21T10:15:42;7.90;99.90
45643;DHT22;31358;46.008;11.144;2023-11-21T10:18:14;7.90;99.90
45643;DHT22;31358;46.008;11.144;2023-11-21T10:20:41;8.10;99.90
45643;DHT22;31358;46.008;11.144;2023-11-21T10:23:07;8.10;99.90
45643;DHT22;31358;46.008;11.144;2023-11-21T10:25:37;8.10;99.90
45643;DHT22;31358;46.008;11.144;2023-11-21T10:28:03;8.20;99.90
45643;DHT22;31358;46.008;11.144;2023-11-21T10:30:36;8.30;99.90
45643;DHT22;31358;46.008;11.144;2023-11-21T10:33:04;8.20;99.90
45643;DHT22;31358;46.008;11.144;2023-11-21T10:35:47;8.20;99.90
45643;DHT22;31358;46.008;11.144;2023-11-21T10:38:18;8.30;99.90
45643;DHT22;31358;46.008;11.144;2023-11-21T10:40:46;8.20;99.90
45643;DHT22;31358;46.008;11.144;2023-11-21T10:43:13;8.00;99.90
45643;DHT22;31358;46.008;11.144;2023-11-21T10:45:41;8.20;99.90
45643;DHT22;31358;46.008;11.144;2023-11-21T10:48:14;8.20;99.90
45643;DHT22;31358;46.008;11.144;2023-11-21T10:50:46;8.20;99.90
45643;DHT22;31358;46.008;11.144;2023-11-21T10:53:12;8.30;99.90
45643;DHT22;31358;46.008;11.144;2023-11-21T10:55:38;8.30;99.90
45643;DHT22;31358;46.008;11.144;2023-11-21T10:58:05;8.40;99.90
45643;DHT22;31358;46.008;11.144;2023-11-21T11:00:32;8.60;99.90
45643;DHT22;31358;46.008;11.144;2023-11-21T11:02:59;8.50;99.90
45643;DHT22;31358;46.008;11.144;2023-11-21T11:05:27;8.50;99.90
45643;DHT22;31358;46.008;11.144;2023-11-21T11:08:05;8.50;99.90
45643;DHT22;31358;46.008;11.144;2023-11-21T11:10:32;8.50;99.90
45643;DHT22;31358;46.008;11.144;2023-11-21T11:12:58;8.50;99.90
45643;DHT22;31358;46.008;11.144;2023-11-21T11:15:25;8.60;99.90
45643;DHT22;31358;46.008;11.144;2023-11-21T11:17:52;8.60;99.90
45643;DHT22;31358;46.008;11.144;2023-11-21T11:20:27;8.70;99.90
45643;DHT22;31358;46.008;11.144;2023-11-21T11:28:11;8.70;99.90
45643;DHT22;31358;46.008;11.144;2023-11-21T11:38:33;8.60;99.90
45643;DHT22;31358;46.008;11.144;2023-11-21T11:41:04;8.50;99.90
45643;DHT22;31358;46.008;11.144;2023-11-21T11:43:31;8.50;99.90
45643;DHT22;31358;46.008;11.144;2023-11-21T11:46:10;8.50;99.90
45643;DHT22;31358;46.008;11.144;2023-11-21T11:48:39;8.60;99.90
45643;DHT22;31358;46.008;11.144;2023-11-21T11:51:10;8.50;99.90
45643;DHT22;31358;46.008;11.144;2023-11-21T11:53:44;8.50;99.90
45643;DHT22;31358;46.008;11.144;2023-11-21T11:56:28;8.30;99.90
45643;DHT22;31358;46.008;11.144;2023-11-21T11:58:58;8.40;99.90
45643;DHT22;31358;46.008;11.144;2023-11-21T12:01:26;8.30;99.90
45643;DHT22;31358;46.008;11.144;2023-11-21T12:06:41;8.20;99.90
45643;DHT22;31358;46.008;11.144;2023-11-21T12:11:44;8.50;99.90
45643;DHT22;31358;46.008;11.144;2023-11-21T12:14:10;8.60;99.90
45643;DHT22;31358;46.008;11.144;2023-11-21T12:16:36;8.50;99.90
45643;DHT22;31358;46.008;11.144;2023-11-21T12:19:02;8.50;99.90
45643;DHT22;31358;46.008;11.144;2023-11-21T12:21:28;8.50;99.90
45643;DHT22;31358;46.008;11.144;2023-11-21T12:23:55;8.30;99.90
45643;DHT22;31358;46.008;11.144;2023-11-21T12:26:24;8.40;99.90
45643;DHT22;31358;46.008;11.144;2023-11-21T12:28:53;8.40;99.90
45643;DHT22;31358;46.008;11.144;2023-11-21T12:31:24;8.30;99.90
45643;DHT22;31358;46.008;11.144;2023-11-21T12:33:50;8.30;99.90
45643;DHT22;31358;46.008;11.144;2023-11-21T12:36:16;8.30;99.90
45643;DHT22;31358;46.008;11.144;2023-11-21T12:38:42;8.40;99.90
45643;DHT22;31358;46.008;11.144;2023-11-21T12:41:09;8.50;99.90
45643;DHT22;31358;46.008;11.144;2023-11-21T12:43:36;8.50;99.90
45643;DHT22;31358;46.008;11.144;2023-11-21T12:46:06;8.50;99.90
45643;DHT22;31358;46.008;11.144;2023-11-21T12:48:32;8.60;99.90
45643;DHT22;31358;46.008;11.144;2023-11-21T12:50:58;8.70;99.90
45643;DHT22;31358;46.008;11.144;2023-11-21T12:53:26;8.70;99.90
45643;DHT22;31358;46.008;11.144;2023-11-21T12:55:51;8.80;99.90
45643;DHT22;31358;46.008;11.144;2023-11-21T12:58:22;8.80;99.90
45643;DHT22;31358;46.008;11.144;2023-11-21T13:00:51;8.70;99.90
45643;DHT22;31358;46.008;11.144;2023-11-21T13:03:19;8.70;99.90
45643;DHT22;31358;46.008;11.144;2023-11-21T13:05:49;8.70;99.90
45643;DHT22;31358;46.008;11.144;2023-11-21T13:08:21;8.80;99.90
45643;DHT22;31358;46.008;11.144;2023-11-21T13:10:50;8.80;99.90
45643;DHT22;31358;46.008;11.144;2023-11-21T13:13:17;8.80;99.90
45643;DHT22;31358;46.008;11.144;2023-11-21T13:15:49;8.80;99.90
45643;DHT22;31358;46.008;11.144;2023-11-21T13:18:16;8.80;99.90
45643;DHT22;31358;46.008;11.144;2023-11-21T13:20:43;8.80;99.90
45643;DHT22;31358;46.008;11.144;2023-11-21T13:23:09;8.80;99.90
45643;DHT22;31358;46.008;11.144;2023-11-21T13:25:38;8.70;99.90
45643;DHT22;31358;46.008;11.144;2023-11-21T13:28:06;8.80;99.90
45643;DHT22;31358;46.008;11.144;2023-11-21T13:30:32;8.80;99.90
45643;DHT22;31358;46.008;11.144;2023-11-21T13:33:04;8.80;99.90
45643;DHT22;31358;46.008;11.144;2023-11-21T13:35:37;8.70;99.90
45643;DHT22;31358;46.008;11.144;2023-11-21T13:38:09;8.70;99.90
45643;DHT22;31358;46.008;11.144;2023-11-21T13:40:36;8.70;99.90
45643;DHT22;31358;46.008;11.144;2023-11-21T13:43:13;8.70;99.90
45643;DHT22;31358;46.008;11.144;2023-11-21T13:45:40;8.70;99.90
45643;DHT22;31358;46.008;11.144;2023-11-21T13:48:06;8.80;99.90
45643;DHT22;31358;46.008;11.144;2023-11-21T13:50:36;8.80;99.90
45643;DHT22;31358;46.008;11.144;2023-11-21T13:53:03;8.70;99.90
45643;DHT22;31358;46.008;11.144;2023-11-21T13:55:44;8.70;99.90
45643;DHT22;31358;46.008;11.144;2023-11-21T13:58:11;8.80;99.90
45643;DHT22;31358;46.008;11.144;2023-11-21T14:00:42;8.80;99.90
45643;DHT22;31358;46.008;11.144;2023-11-21T14:03:14;8.80;99.90
45643;DHT22;31358;46.008;11.144;2023-11-21T14:05:46;8.70;99.90
45643;DHT22;31358;46.008;11.144;2023-11-21T14:08:17;8.70;99.90
45643;DHT22;31358;46.008;11.144;2023-11-21T14:10:46;8.80;99.90
45643;DHT22;31358;46.008;11.144;2023-11-21T14:13:17;8.80;99.90
45643;DHT22;31358;46.008;11.144;2023-11-21T14:15:43;8.80;99.90
45643;DHT22;31358;46.008;11.144;2023-11-21T14:18:11;8.90;99.90
45643;DHT22;31358;46.008;11.144;2023-11-21T14:20:40;8.80;99.90
45643;DHT22;31358;46.008;11.144;2023-11-21T14:23:07;8.50;99.90
45643;DHT22;31358;46.008;11.144;2023-11-21T14:25:34;8.50;99.90
45643;DHT22;31358;46.008;11.144;2023-11-21T14:28:03;8.50;99.90
45643;DHT22;31358;46.008;11.144;2023-11-21T14:30:29;8.80;99.90
45643;DHT22;31358;46.008;11.144;2023-11-21T14:32:58;8.70;99.90
45643;DHT22;31358;46.008;11.144;2023-11-21T14:35:24;8.70;99.90
45643;DHT22;31358;46.008;11.144;2023-11-21T14:37:49;8.70;99.90
45643;DHT22;31358;46.008;11.144;2023-11-21T14:40:15;8.70;99.90
45643;DHT22;31358;46.008;11.144;2023-11-21T14:42:44;8.60;99.90
45643;DHT22;31358;46.008;11.144;2023-11-21T14:45:13;8.70;99.90
45643;DHT22;31358;46.008;11.144;2023-11-21T14:47:42;8.70;99.90
45643;DHT22;31358;46.008;11.144;2023-11-21T14:50:13;8.70;99.90
45643;DHT22;31358;46.008;11.144;2023-11-21T14:52:57;8.70;99.90
45643;DHT22;31358;46.008;11.144;2023-11-21T14:55:25;8.60;99.90
45643;DHT22;31358;46.008;11.144;2023-11-21T14:57:57;8.60;99.90
45643;DHT22;31358;46.008;11.144;2023-11-21T15:00:27;8.50;99.90
45643;DHT22;31358;46.008;11.144;2023-11-21T15:02:59;8.50;99.90
45643;DHT22;31358;46.008;11.144;2023-11-21T15:05:25;8.30;99.90
45643;DHT22;31358;46.008;11.144;2023-11-21T15:07:53;8.20;99.90
45643;DHT22;31358;46.008;11.144;2023-11-21T15:10:22;8.20;99.90
45643;DHT22;31358;46.008;11.144;2023-11-21T15:12:55;8.20;99.90
45643;DHT22;31358;46.008;11.144;2023-11-21T15:15:21;8.20;99.90
45643;DHT22;31358;46.008;11.144;2023-11-21T15:17:47;8.30;99.90
45643;DHT22;31358;46.008;11.144;2023-11-21T15:20:13;8.20;99.90
45643;DHT22;31358;46.008;11.144;2023-11-21T15:22:47;8.10;99.90
45643;DHT22;31358;46.008;11.144;2023-11-21T15:25:12;8.10;99.90
45643;DHT22;31358;46.008;11.144;2023-11-21T15:27:39;7.90;99.90
45643;DHT22;31358;46.008;11.144;2023-11-21T15:30:05;7.90;99.90
45643;DHT22;31358;46.008;11.144;2023-11-21T15:32:31;8.00;99.90
45643;DHT22;31358;46.008;11.144;2023-11-21T15:34:57;8.00;99.90
45643;DHT22;31358;46.008;11.144;2023-11-21T15:37:23;8.00;99.90
45643;DHT22;31358;46.008;11.144;2023-11-21T15:39:51;7.80;99.90
45643;DHT22;31358;46.008;11.144;2023-11-21T15:42:17;7.80;99.90
45643;DHT22;31358;46.008;11.144;2023-11-21T15:44:43;7.90;99.90
45643;DHT22;31358;46.008;11.144;2023-11-21T15:47:08;7.90;99.90
45643;DHT22;31358;46.008;11.144;2023-11-21T15:49:34;7.90;99.90